createdAt,value
2017-02-23T00:00:20.380Z,0
2017-02-23T00:01:30.128Z,0
2017-02-23T00:02:39.886Z,0
2017-02-23T00:03:49.707Z,0
2017-02-23T00:04:59.025Z,0
2017-02-23T00:06:08.386Z,0
2017-02-23T00:07:18.142Z,0
2017-02-23T00:08:27.452Z,0
2017-02-23T00:09:37.277Z,0
2017-02-23T00:10:46.621Z,0
2017-02-23T00:11:56.840Z,0
2017-02-23T00:13:06.180Z,0
2017-02-23T00:14:16.861Z,0
2017-02-23T00:15:26.677Z,0
2017-02-23T00:16:36.436Z,0
2017-02-23T00:17:45.769Z,0
2017-02-23T00:18:55.558Z,0
2017-02-23T00:20:04.887Z,0
2017-02-23T00:21:14.252Z,0
2017-02-23T00:22:23.569Z,0
2017-02-23T00:23:32.886Z,0
2017-02-23T00:24:42.200Z,0
2017-02-23T00:25:51.968Z,0
2017-02-23T00:27:01.784Z,0
2017-02-23T00:28:11.985Z,0
2017-02-23T00:29:21.780Z,0
2017-02-23T00:30:31.545Z,0
2017-02-23T00:31:41.318Z,0
2017-02-23T00:32:50.695Z,0
2017-02-23T00:34:00.008Z,0
2017-02-23T00:35:09.764Z,0
2017-02-23T00:36:19.962Z,0
2017-02-23T00:37:29.727Z,0
2017-02-23T00:38:39.104Z,0
2017-02-23T00:39:48.426Z,0
2017-02-23T00:40:57.771Z,0
2017-02-23T00:42:07.100Z,0
2017-02-23T00:43:17.309Z,0
2017-02-23T00:44:27.162Z,0
2017-02-23T00:45:36.932Z,0
2017-02-23T00:46:46.244Z,0
2017-02-23T00:47:55.601Z,0
2017-02-23T00:49:04.930Z,0
2017-02-23T00:50:14.287Z,0
2017-02-23T00:51:23.608Z,0
2017-02-23T00:52:32.929Z,0
2017-02-23T00:53:42.243Z,0
2017-02-23T00:54:51.560Z,0
2017-02-23T00:56:00.941Z,0
2017-02-23T00:57:11.178Z,0
2017-02-23T00:58:20.494Z,0
2017-02-23T00:59:30.243Z,0
2017-02-23T01:00:39.565Z,0
2017-02-23T01:01:48.950Z,0
2017-02-23T01:02:58.719Z,0
2017-02-23T01:04:08.060Z,0
2017-02-23T01:05:17.377Z,0
2017-02-23T01:06:27.138Z,0
2017-02-23T01:07:36.947Z,0
2017-02-23T01:08:46.705Z,0
2017-02-23T01:09:56.014Z,0
2017-02-23T01:11:05.787Z,0
2017-02-23T01:12:15.096Z,0
2017-02-23T01:13:24.465Z,0
2017-02-23T01:14:33.806Z,0
2017-02-23T01:15:44.027Z,0
2017-02-23T01:16:53.341Z,0
2017-02-23T01:18:03.101Z,0
2017-02-23T01:19:12.467Z,0
2017-02-23T01:20:21.791Z,0
2017-02-23T01:21:31.145Z,0
2017-02-23T01:22:40.450Z,0
2017-02-23T01:23:49.759Z,0
2017-02-23T01:24:59.119Z,0
2017-02-23T01:26:08.885Z,0
2017-02-23T01:27:18.646Z,0
2017-02-23T01:28:27.968Z,0
2017-02-23T01:29:37.281Z,0
2017-02-23T01:30:46.649Z,0
2017-02-23T01:31:56.419Z,0
2017-02-23T01:33:06.180Z,0
2017-02-23T01:34:15.501Z,0
2017-02-23T01:35:25.260Z,0
2017-02-23T01:36:35.546Z,0
2017-02-23T01:37:45.329Z,0
2017-02-23T01:38:54.654Z,0
2017-02-23T01:40:03.987Z,0
2017-02-23T01:41:13.741Z,0
2017-02-23T01:42:23.541Z,0
2017-02-23T01:43:33.315Z,0
2017-02-23T01:44:43.512Z,0
2017-02-23T01:45:52.834Z,0
2017-02-23T01:47:02.177Z,0
2017-02-23T01:48:11.976Z,0
2017-02-23T01:49:21.301Z,0
2017-02-23T01:50:30.630Z,0
2017-02-23T01:51:39.940Z,0
2017-02-23T01:52:49.257Z,0
2017-02-23T01:53:58.638Z,0
2017-02-23T01:55:07.963Z,0
2017-02-23T01:56:17.292Z,0
2017-02-23T01:57:27.494Z,0
2017-02-23T01:58:37.293Z,0
2017-02-23T01:59:47.548Z,0
2017-02-23T02:00:56.877Z,0
2017-02-23T02:02:06.666Z,0
2017-02-23T02:03:15.974Z,0
2017-02-23T02:04:25.299Z,0
2017-02-23T02:05:34.666Z,0
2017-02-23T02:06:43.983Z,0
2017-02-23T02:07:53.300Z,0
2017-02-23T02:09:02.630Z,0
2017-02-23T02:10:12.394Z,0
2017-02-23T02:11:21.800Z,0
2017-02-23T02:12:31.137Z,0
2017-02-23T02:13:40.897Z,0
2017-02-23T02:14:51.115Z,0
2017-02-23T02:16:00.424Z,0
2017-02-23T02:17:09.805Z,0
2017-02-23T02:18:20.011Z,0
2017-02-23T02:19:29.349Z,0
2017-02-23T02:20:39.546Z,0
2017-02-23T02:21:48.854Z,0
2017-02-23T02:22:58.320Z,0
2017-02-23T02:24:07.631Z,0
2017-02-23T02:25:17.857Z,0
2017-02-23T02:26:27.614Z,0
2017-02-23T02:27:37.393Z,0
2017-02-23T02:28:48.638Z,0
2017-02-23T02:29:57.947Z,0
2017-02-23T02:31:07.717Z,0
2017-02-23T02:32:17.937Z,0
2017-02-23T02:33:27.291Z,0
2017-02-23T02:34:37.533Z,0
2017-02-23T02:35:47.289Z,0
2017-02-23T02:36:56.611Z,0
2017-02-23T02:38:06.384Z,0
2017-02-23T02:39:16.589Z,0
2017-02-23T02:40:25.954Z,0
2017-02-23T02:41:35.288Z,0
2017-02-23T02:42:45.505Z,0
2017-02-23T02:43:54.838Z,0
2017-02-23T02:45:04.587Z,0
2017-02-23T02:46:13.948Z,0
2017-02-23T02:47:24.142Z,0
2017-02-23T02:48:33.459Z,0
2017-02-23T02:49:42.775Z,0
2017-02-23T02:50:52.572Z,0
2017-02-23T02:52:02.825Z,0
2017-02-23T02:53:13.047Z,0
2017-02-23T02:54:22.377Z,0
2017-02-23T02:55:31.703Z,0
2017-02-23T02:56:41.024Z,0
2017-02-23T02:57:50.830Z,0
2017-02-23T02:59:00.182Z,0
2017-02-23T03:00:09.500Z,0
2017-02-23T03:01:18.857Z,0
2017-02-23T03:02:28.178Z,0
2017-02-23T03:03:37.567Z,0
2017-02-23T03:04:46.920Z,0
2017-02-23T03:05:56.734Z,0
2017-02-23T03:07:06.055Z,0
2017-02-23T03:08:15.812Z,0
2017-02-23T03:09:25.617Z,0
2017-02-23T03:10:35.379Z,0
2017-02-23T03:11:44.706Z,0
2017-02-23T03:12:54.921Z,0
2017-02-23T03:14:04.698Z,0
2017-02-23T03:15:14.078Z,0
2017-02-23T03:16:24.269Z,0
2017-02-23T03:17:33.602Z,0
2017-02-23T03:18:42.937Z,0
2017-02-23T03:19:53.136Z,0
2017-02-23T03:21:02.521Z,0
2017-02-23T03:22:11.839Z,0
2017-02-23T03:23:21.155Z,0
2017-02-23T03:24:30.929Z,0
2017-02-23T03:25:40.262Z,0
2017-02-23T03:26:50.087Z,0
2017-02-23T03:27:59.408Z,0
2017-02-23T03:29:09.188Z,0
2017-02-23T03:30:19.843Z,0
2017-02-23T03:31:29.173Z,0
2017-02-23T03:32:38.977Z,0
2017-02-23T03:33:49.182Z,0
2017-02-23T03:34:58.535Z,0
2017-02-23T03:36:07.865Z,0
2017-02-23T03:37:17.646Z,0
2017-02-23T03:38:27.027Z,0
2017-02-23T03:39:36.344Z,0
2017-02-23T03:40:45.661Z,0
2017-02-23T03:41:54.967Z,0
2017-02-23T03:43:04.744Z,0
2017-02-23T03:44:14.141Z,0
2017-02-23T03:45:23.528Z,0
2017-02-23T03:46:32.851Z,0
2017-02-23T03:47:42.193Z,0
2017-02-23T03:48:52.394Z,0
2017-02-23T03:50:01.775Z,0
2017-02-23T03:51:11.541Z,0
2017-02-23T03:52:21.350Z,0
2017-02-23T03:53:30.683Z,0
2017-02-23T03:54:40.447Z,0
2017-02-23T03:55:50.243Z,0
2017-02-23T03:56:59.999Z,0
2017-02-23T03:58:09.772Z,0
2017-02-23T03:59:19.089Z,0
2017-02-23T04:00:28.445Z,0
2017-02-23T04:01:38.420Z,0
2017-02-23T04:02:47.741Z,0
2017-02-23T04:03:57.495Z,0
2017-02-23T04:05:07.716Z,0
2017-02-23T04:06:17.517Z,0
2017-02-23T04:07:26.878Z,0
2017-02-23T04:08:36.652Z,0
2017-02-23T04:09:46.425Z,0
2017-02-23T04:10:56.174Z,0
2017-02-23T04:12:05.491Z,0
2017-02-23T04:13:14.857Z,0
2017-02-23T04:14:24.190Z,0
2017-02-23T04:15:33.511Z,0
2017-02-23T04:16:42.870Z,0
2017-02-23T04:17:52.657Z,0
2017-02-23T04:19:02.039Z,0
2017-02-23T04:20:11.828Z,0
2017-02-23T04:21:21.610Z,0
2017-02-23T04:22:30.918Z,0
2017-02-23T04:23:40.256Z,0
2017-02-23T04:24:49.636Z,0
2017-02-23T04:25:58.982Z,0
2017-02-23T04:27:08.315Z,0
2017-02-23T04:28:17.624Z,0
2017-02-23T04:29:26.942Z,0
2017-02-23T04:30:36.746Z,0
2017-02-23T04:31:46.528Z,0
2017-02-23T04:32:55.858Z,0
2017-02-23T04:34:05.167Z,0
2017-02-23T04:35:14.487Z,0
2017-02-23T04:36:23.877Z,0
2017-02-23T04:37:33.226Z,0
2017-02-23T04:38:42.583Z,0
2017-02-23T04:39:51.900Z,0
2017-02-23T04:41:01.208Z,0
2017-02-23T04:42:11.007Z,0
2017-02-23T04:43:20.328Z,0
2017-02-23T04:44:29.633Z,0
2017-02-23T04:45:38.946Z,0
2017-02-23T04:46:48.719Z,0
2017-02-23T04:47:58.081Z,0
2017-02-23T04:49:07.385Z,0
2017-02-23T04:50:17.173Z,0
2017-02-23T04:51:26.932Z,0
2017-02-23T04:52:36.233Z,0
2017-02-23T04:53:45.599Z,0
2017-02-23T04:54:55.360Z,0
2017-02-23T04:56:04.677Z,0
2017-02-23T04:57:15.322Z,0
2017-02-23T04:58:25.979Z,0
2017-02-23T04:59:35.652Z,0
2017-02-23T05:00:45.429Z,0
2017-02-23T05:01:55.181Z,0
2017-02-23T05:03:04.514Z,0
2017-02-23T05:04:14.261Z,0
2017-02-23T05:05:23.630Z,0
2017-02-23T05:06:32.953Z,0
2017-02-23T05:07:42.312Z,0
2017-02-23T05:08:51.641Z,0
2017-02-23T05:10:00.987Z,0
2017-02-23T05:11:10.364Z,0
2017-02-23T05:12:20.141Z,0
2017-02-23T05:13:29.926Z,0
2017-02-23T05:14:39.283Z,0
2017-02-23T05:15:49.055Z,0
2017-02-23T05:16:59.306Z,0
2017-02-23T05:18:08.635Z,0
2017-02-23T05:19:18.424Z,0
2017-02-23T05:20:28.189Z,0
2017-02-23T05:21:37.499Z,0
2017-02-23T05:22:47.772Z,0
2017-02-23T05:23:57.980Z,0
2017-02-23T05:25:08.191Z,0
2017-02-23T05:26:17.503Z,0
2017-02-23T05:27:26.852Z,0
2017-02-23T05:28:36.658Z,0
2017-02-23T05:29:45.999Z,0
2017-02-23T05:30:55.784Z,0
2017-02-23T05:32:05.573Z,0
2017-02-23T05:33:14.898Z,0
2017-02-23T05:34:24.708Z,0
2017-02-23T05:35:34.508Z,0
2017-02-23T05:36:43.849Z,4
2017-02-23T05:37:54.087Z,0
2017-02-23T05:39:03.396Z,0
2017-02-23T05:40:12.758Z,0
2017-02-23T05:41:22.086Z,0
2017-02-23T05:42:31.396Z,0
2017-02-23T05:43:40.717Z,0
2017-02-23T05:44:50.033Z,0
2017-02-23T05:45:59.387Z,0
2017-02-23T05:47:08.724Z,4
2017-02-23T05:48:18.484Z,4
2017-02-23T05:49:28.251Z,0
2017-02-23T05:50:37.576Z,0
2017-02-23T05:51:47.374Z,0
2017-02-23T05:52:56.711Z,0
2017-02-23T05:54:06.476Z,0
2017-02-23T05:55:15.817Z,4
2017-02-23T05:56:25.158Z,4
2017-02-23T05:57:34.976Z,4
2017-02-23T05:58:46.452Z,4
2017-02-23T05:59:59.134Z,4
2017-02-23T06:01:10.834Z,4
2017-02-23T06:02:21.341Z,4
2017-02-23T06:03:30.729Z,4
2017-02-23T06:04:40.055Z,4
2017-02-23T06:05:49.392Z,4
2017-02-23T06:06:58.722Z,8
2017-02-23T06:08:08.506Z,8
2017-02-23T06:09:17.871Z,4
2017-02-23T06:10:27.193Z,4
2017-02-23T06:11:36.943Z,8
2017-02-23T06:12:46.715Z,8
2017-02-23T06:13:56.937Z,12
2017-02-23T06:15:06.326Z,12
2017-02-23T06:16:16.546Z,16
2017-02-23T06:17:26.744Z,16
2017-02-23T06:18:36.113Z,20
2017-02-23T06:19:45.867Z,20
2017-02-23T06:20:56.139Z,20
2017-02-23T06:22:05.909Z,20
2017-02-23T06:23:15.696Z,20
2017-02-23T06:24:25.463Z,28
2017-02-23T06:25:34.772Z,32
2017-02-23T06:26:44.689Z,36
2017-02-23T06:27:54.459Z,40
2017-02-23T06:29:04.252Z,36
2017-02-23T06:30:13.557Z,52
2017-02-23T06:31:23.321Z,52
2017-02-23T06:32:32.684Z,60
2017-02-23T06:33:42.480Z,60
2017-02-23T06:34:51.806Z,60
2017-02-23T06:36:01.127Z,68
2017-02-23T06:37:10.480Z,76
2017-02-23T06:38:21.190Z,88
2017-02-23T06:39:30.539Z,108
2017-02-23T06:40:39.851Z,116
2017-02-23T06:41:49.169Z,144
2017-02-23T06:42:58.493Z,136
2017-02-23T06:44:08.767Z,168
2017-02-23T06:45:18.095Z,204
2017-02-23T06:46:28.297Z,156
2017-02-23T06:47:37.635Z,172
2017-02-23T06:48:46.968Z,196
2017-02-23T06:49:56.769Z,168
2017-02-23T06:51:06.519Z,212
2017-02-23T06:52:15.827Z,228
2017-02-23T06:53:25.617Z,184
2017-02-23T06:54:35.400Z,236
2017-02-23T06:55:45.681Z,276
2017-02-23T06:56:55.885Z,276
2017-02-23T06:58:05.664Z,356
2017-02-23T06:59:14.982Z,312
2017-02-23T07:00:24.310Z,276
2017-02-23T07:01:34.173Z,292
2017-02-23T07:02:44.381Z,280
2017-02-23T07:03:54.127Z,332
2017-02-23T07:05:03.452Z,316
2017-02-23T07:06:12.798Z,288
2017-02-23T07:07:23.074Z,316
2017-02-23T07:08:32.384Z,412
2017-02-23T07:09:41.719Z,456
2017-02-23T07:10:51.477Z,408
2017-02-23T07:12:00.799Z,384
2017-02-23T07:13:10.180Z,476
2017-02-23T07:14:20.381Z,548
2017-02-23T07:15:30.134Z,616
2017-02-23T07:16:39.447Z,660
2017-02-23T07:17:49.213Z,564
2017-02-23T07:18:58.577Z,520
2017-02-23T07:20:08.342Z,548
2017-02-23T07:21:18.136Z,560
2017-02-23T07:22:27.475Z,512
2017-02-23T07:23:37.673Z,496
2017-02-23T07:24:47.926Z,444
2017-02-23T07:25:58.141Z,420
2017-02-23T07:27:07.462Z,412
2017-02-23T07:28:17.270Z,504
2017-02-23T07:29:26.595Z,572
2017-02-23T07:30:35.968Z,588
2017-02-23T07:31:45.732Z,540
2017-02-23T07:32:55.931Z,516
2017-02-23T07:34:05.692Z,512
2017-02-23T07:35:15.025Z,528
2017-02-23T07:36:24.403Z,612
2017-02-23T07:37:33.719Z,616
2017-02-23T07:38:43.061Z,708
2017-02-23T07:39:52.402Z,704
2017-02-23T07:41:02.181Z,600
2017-02-23T07:42:11.548Z,592
2017-02-23T07:43:21.321Z,548
2017-02-23T07:44:30.658Z,528
2017-02-23T07:45:39.972Z,484
2017-02-23T07:46:50.603Z,480
2017-02-23T07:47:59.994Z,524
2017-02-23T07:49:10.223Z,468
2017-02-23T07:50:19.993Z,456
2017-02-23T07:51:29.761Z,500
2017-02-23T07:52:39.087Z,480
2017-02-23T07:53:48.452Z,456
2017-02-23T07:54:57.778Z,432
2017-02-23T07:56:07.111Z,404
2017-02-23T07:57:16.863Z,392
2017-02-23T07:58:26.633Z,384
2017-02-23T07:59:36.012Z,400
2017-02-23T08:00:46.231Z,384
2017-02-23T08:01:56.452Z,380
2017-02-23T08:03:06.226Z,352
2017-02-23T08:04:15.546Z,392
2017-02-23T08:05:25.392Z,428
2017-02-23T08:06:34.709Z,488
2017-02-23T08:07:44.486Z,548
2017-02-23T08:08:53.816Z,644
2017-02-23T08:10:03.617Z,648
2017-02-23T08:11:13.870Z,596
2017-02-23T08:12:23.650Z,492
2017-02-23T08:13:33.000Z,444
2017-02-23T08:14:42.769Z,408
2017-02-23T08:15:52.557Z,384
2017-02-23T08:17:02.510Z,436
2017-02-23T08:18:12.272Z,500
2017-02-23T08:19:21.598Z,604
2017-02-23T08:20:31.367Z,724
2017-02-23T08:21:40.685Z,884
2017-02-23T08:22:50.082Z,1016
2017-02-23T08:23:59.395Z,1092
2017-02-23T08:25:08.716Z,1256
2017-02-23T08:26:18.485Z,1312
2017-02-23T08:27:27.847Z,1364
2017-02-23T08:28:37.655Z,1364
2017-02-23T08:29:47.408Z,1444
2017-02-23T08:30:56.766Z,1264
2017-02-23T08:32:06.103Z,1472
2017-02-23T08:33:15.458Z,1596
2017-02-23T08:34:25.430Z,1664
2017-02-23T08:35:34.759Z,1604
2017-02-23T08:36:44.092Z,1900
2017-02-23T08:37:53.405Z,1668
2017-02-23T08:39:03.174Z,1992
2017-02-23T08:40:12.570Z,1792
2017-02-23T08:41:22.777Z,1500
2017-02-23T08:42:32.090Z,1520
2017-02-23T08:43:41.435Z,1476
2017-02-23T08:44:50.764Z,1524
2017-02-23T08:46:01.030Z,1884
2017-02-23T08:47:10.338Z,1712
2017-02-23T08:48:19.647Z,1628
2017-02-23T08:49:29.447Z,2424
2017-02-23T08:50:40.094Z,2468
2017-02-23T08:51:49.471Z,2508
2017-02-23T08:52:58.788Z,2912
2017-02-23T08:54:08.120Z,2356
2017-02-23T08:55:18.319Z,2512
2017-02-23T08:56:28.090Z,2648
2017-02-23T08:57:37.896Z,2332
2017-02-23T08:58:48.121Z,2488
2017-02-23T08:59:57.459Z,2596
2017-02-23T09:01:07.228Z,2800
2017-02-23T09:02:16.577Z,3012
2017-02-23T09:03:26.411Z,2136
2017-02-23T09:04:35.750Z,2112
2017-02-23T09:05:45.972Z,2292
2017-02-23T09:06:55.309Z,2104
2017-02-23T09:08:04.633Z,1944
2017-02-23T09:09:14.447Z,1376
2017-02-23T09:10:24.210Z,1292
2017-02-23T09:11:33.970Z,1756
2017-02-23T09:12:43.303Z,1856
2017-02-23T09:13:52.625Z,1780
2017-02-23T09:15:02.006Z,1752
2017-02-23T09:16:11.319Z,1428
2017-02-23T09:17:20.644Z,1420
2017-02-23T09:18:29.989Z,1276
2017-02-23T09:19:39.314Z,1324
2017-02-23T09:20:48.687Z,1228
2017-02-23T09:21:58.024Z,1260
2017-02-23T09:23:08.228Z,1084
2017-02-23T09:24:17.558Z,1324
2017-02-23T09:25:27.315Z,1380
2017-02-23T09:26:36.689Z,1340
2017-02-23T09:27:46.466Z,1256
2017-02-23T09:28:55.773Z,1216
2017-02-23T09:30:06.415Z,1368
2017-02-23T09:31:15.739Z,1348
2017-02-23T09:32:25.102Z,1176
2017-02-23T09:33:34.435Z,1260
2017-02-23T09:34:43.757Z,1232
2017-02-23T09:35:53.063Z,1188
2017-02-23T09:37:02.818Z,1288
2017-02-23T09:38:13.068Z,1164
2017-02-23T09:39:22.848Z,1236
2017-02-23T09:40:32.158Z,1180
2017-02-23T09:41:41.939Z,1128
2017-02-23T09:42:51.265Z,1012
2017-02-23T09:44:00.634Z,1012
2017-02-23T09:45:09.973Z,1004
2017-02-23T09:46:20.627Z,1064
2017-02-23T09:47:29.961Z,1112
2017-02-23T09:48:40.618Z,1176
2017-02-23T09:49:50.000Z,1184
2017-02-23T09:50:59.773Z,1224
2017-02-23T09:52:09.126Z,1324
2017-02-23T09:53:18.915Z,1448
2017-02-23T09:54:29.148Z,1528
2017-02-23T09:55:38.945Z,1576
2017-02-23T09:56:48.283Z,1588
2017-02-23T09:57:57.628Z,1616
2017-02-23T09:59:06.953Z,1460
2017-02-23T10:00:16.274Z,1716
2017-02-23T10:01:25.659Z,1612
2017-02-23T10:02:34.999Z,1716
2017-02-23T10:03:45.186Z,1640
2017-02-23T10:04:54.963Z,1636
2017-02-23T10:06:04.760Z,1924
2017-02-23T10:07:14.682Z,1748
2017-02-23T10:08:25.326Z,1884
2017-02-23T10:09:34.635Z,1880
2017-02-23T10:10:43.948Z,1732
2017-02-23T10:11:54.150Z,1696
2017-02-23T10:13:03.549Z,1844
2017-02-23T10:14:13.744Z,1728
2017-02-23T10:15:23.497Z,1980
2017-02-23T10:16:32.833Z,1784
2017-02-23T10:17:42.162Z,1548
2017-02-23T10:18:52.436Z,1700
2017-02-23T10:20:01.750Z,1772
2017-02-23T10:21:11.079Z,1752
2017-02-23T10:22:20.399Z,1780
2017-02-23T10:23:30.158Z,2004
2017-02-23T10:24:40.438Z,1740
2017-02-23T10:25:49.807Z,1912
2017-02-23T10:26:59.561Z,1420
2017-02-23T10:28:09.350Z,1512
2017-02-23T10:29:19.117Z,1680
2017-02-23T10:30:28.947Z,1356
2017-02-23T10:31:38.697Z,1688
2017-02-23T10:32:48.010Z,1784
2017-02-23T10:33:58.235Z,1816
2017-02-23T10:35:07.552Z,1792
2017-02-23T10:36:16.922Z,1632
2017-02-23T10:37:26.235Z,1680
2017-02-23T10:38:35.560Z,1488
2017-02-23T10:39:45.335Z,1432
2017-02-23T10:40:55.093Z,1900
2017-02-23T10:42:05.346Z,1924
2017-02-23T10:43:14.665Z,1632
2017-02-23T10:44:24.424Z,1524
2017-02-23T10:45:34.175Z,1748
2017-02-23T10:46:43.536Z,1596
2017-02-23T10:47:52.909Z,1916
2017-02-23T10:49:02.663Z,2004
2017-02-23T10:50:12.012Z,1876
2017-02-23T10:51:21.328Z,1716
2017-02-23T10:52:31.552Z,2484
2017-02-23T10:53:40.930Z,2576
2017-02-23T10:54:50.248Z,3040
2017-02-23T10:55:59.578Z,3212
2017-02-23T10:57:09.335Z,3520
2017-02-23T10:58:18.664Z,3376
2017-02-23T10:59:28.021Z,3836
2017-02-23T11:00:37.796Z,3432
2017-02-23T11:01:47.991Z,3276
2017-02-23T11:02:57.337Z,4424
2017-02-23T11:04:06.681Z,3964
2017-02-23T11:05:16.055Z,3692
2017-02-23T11:06:25.397Z,2860
2017-02-23T11:07:34.725Z,3576
2017-02-23T11:08:44.069Z,4648
2017-02-23T11:09:53.847Z,3420
2017-02-23T11:11:03.253Z,3384
2017-02-23T11:12:12.578Z,3408
2017-02-23T11:13:21.911Z,2700
2017-02-23T11:14:31.251Z,2728
2017-02-23T11:15:41.464Z,2176
2017-02-23T11:16:50.841Z,2864
2017-02-23T11:18:00.168Z,3092
2017-02-23T11:19:09.918Z,2636
2017-02-23T11:20:19.677Z,3844
2017-02-23T11:21:29.455Z,3448
2017-02-23T11:22:38.812Z,3556
2017-02-23T11:23:48.578Z,3244
2017-02-23T11:24:57.919Z,3060
2017-02-23T11:26:08.131Z,2864
2017-02-23T11:27:17.893Z,3112
2017-02-23T11:28:27.277Z,2400
2017-02-23T11:29:36.635Z,2204
2017-02-23T11:30:45.973Z,2652
2017-02-23T11:31:55.734Z,2744
2017-02-23T11:33:05.519Z,2120
2017-02-23T11:34:14.916Z,2396
2017-02-23T11:35:24.229Z,2384
2017-02-23T11:36:34.010Z,3228
2017-02-23T11:37:43.783Z,2760
2017-02-23T11:38:53.108Z,2712
2017-02-23T11:40:02.922Z,2172
2017-02-23T11:41:12.689Z,2812
2017-02-23T11:42:22.456Z,3052
2017-02-23T11:43:31.785Z,2956
2017-02-23T11:44:42.417Z,2628
2017-02-23T11:45:52.248Z,3360
2017-02-23T11:47:02.012Z,3408
2017-02-23T11:48:11.356Z,3772
2017-02-23T11:49:21.575Z,3664
2017-02-23T11:50:31.352Z,3604
2017-02-23T11:51:40.721Z,3176
2017-02-23T11:52:50.050Z,3876
2017-02-23T11:53:59.376Z,3364
2017-02-23T11:55:08.697Z,2876
2017-02-23T11:56:18.466Z,2268
2017-02-23T11:57:27.835Z,2404
2017-02-23T11:58:37.164Z,2056
2017-02-23T11:59:46.933Z,2052
2017-02-23T12:00:56.251Z,1960
2017-02-23T12:02:05.578Z,2952
2017-02-23T12:03:15.380Z,2660
2017-02-23T12:04:24.698Z,2692
2017-02-23T12:05:34.475Z,2764
2017-02-23T12:06:43.832Z,3148
2017-02-23T12:07:53.188Z,2596
2017-02-23T12:09:03.006Z,2136
2017-02-23T12:10:12.794Z,1964
2017-02-23T12:11:22.604Z,2216
2017-02-23T12:12:32.854Z,3364
2017-02-23T12:13:42.175Z,3380
2017-02-23T12:14:51.548Z,4284
2017-02-23T12:16:01.305Z,3804
2017-02-23T12:17:10.638Z,4056
2017-02-23T12:18:19.967Z,3940
2017-02-23T12:19:29.713Z,3008
2017-02-23T12:20:39.078Z,3416
2017-02-23T12:21:48.858Z,3480
2017-02-23T12:22:58.628Z,3256
2017-02-23T12:24:09.291Z,3572
2017-02-23T12:25:19.495Z,2968
2017-02-23T12:26:29.314Z,3180
2017-02-23T12:27:39.075Z,2268
2017-02-23T12:28:49.277Z,2908
2017-02-23T12:29:58.599Z,2796
2017-02-23T12:31:08.355Z,3392
2017-02-23T12:32:17.745Z,2664
2017-02-23T12:33:27.072Z,3160
2017-02-23T12:34:37.711Z,3316
2017-02-23T12:35:47.048Z,3792
2017-02-23T12:36:56.378Z,3172
2017-02-23T12:38:05.779Z,3328
2017-02-23T12:39:15.096Z,2772
2017-02-23T12:40:24.453Z,2664
2017-02-23T12:41:33.786Z,2304
2017-02-23T12:42:43.103Z,2264
2017-02-23T12:43:52.617Z,1684
2017-02-23T12:45:02.385Z,2736
2017-02-23T12:46:12.129Z,3476
2017-02-23T12:47:21.440Z,3700
2017-02-23T12:48:31.229Z,3892
2017-02-23T12:49:40.644Z,3044
2017-02-23T12:50:50.411Z,2896
2017-02-23T12:51:59.756Z,2300
2017-02-23T12:53:09.089Z,1668
2017-02-23T12:54:18.847Z,1704
2017-02-23T12:55:28.207Z,1496
2017-02-23T12:56:37.969Z,2156
2017-02-23T12:57:48.178Z,2124
2017-02-23T12:58:57.511Z,1660
2017-02-23T13:00:07.296Z,1932
2017-02-23T13:01:16.674Z,1616
2017-02-23T13:02:26.451Z,1064
2017-02-23T13:03:36.679Z,1300
2017-02-23T13:04:45.989Z,1032
2017-02-23T13:05:55.333Z,1060
2017-02-23T13:07:04.719Z,1640
2017-02-23T13:08:14.500Z,1612
2017-02-23T13:09:24.250Z,2488
2017-02-23T13:10:34.043Z,2612
2017-02-23T13:11:44.690Z,2396
2017-02-23T13:12:54.053Z,3020
2017-02-23T13:14:03.379Z,3236
2017-02-23T13:15:13.166Z,3112
2017-02-23T13:16:22.951Z,3524
2017-02-23T13:17:32.274Z,4100
2017-02-23T13:18:41.643Z,2752
2017-02-23T13:19:50.956Z,1912
2017-02-23T13:21:00.737Z,2208
2017-02-23T13:22:10.069Z,2116
2017-02-23T13:23:19.376Z,1436
2017-02-23T13:24:28.761Z,1144
2017-02-23T13:25:38.096Z,1360
2017-02-23T13:26:48.755Z,2520
2017-02-23T13:27:58.964Z,1840
2017-02-23T13:29:08.282Z,1996
2017-02-23T13:30:18.059Z,2032
2017-02-23T13:31:27.380Z,1792
2017-02-23T13:32:37.177Z,1384
2017-02-23T13:33:46.482Z,1752
2017-02-23T13:34:55.795Z,1724
2017-02-23T13:36:05.217Z,1660
2017-02-23T13:37:15.466Z,1564
2017-02-23T13:38:25.239Z,2088
2017-02-23T13:39:35.012Z,1668
2017-02-23T13:40:45.208Z,1332
2017-02-23T13:41:55.031Z,896
2017-02-23T13:43:05.243Z,944
2017-02-23T13:44:14.993Z,888
2017-02-23T13:45:24.318Z,1156
2017-02-23T13:46:36.162Z,1268
2017-02-23T13:47:46.795Z,2184
2017-02-23T13:48:57.577Z,2076
2017-02-23T13:50:07.317Z,3012
2017-02-23T13:51:18.267Z,3404
2017-02-23T13:52:29.720Z,2360
2017-02-23T13:53:41.197Z,2876
2017-02-23T13:54:52.619Z,3232
2017-02-23T13:56:04.078Z,3104
2017-02-23T13:57:15.493Z,3444
2017-02-23T13:58:26.920Z,3300
2017-02-23T13:59:37.813Z,3924
2017-02-23T14:00:48.073Z,2756
2017-02-23T14:01:59.522Z,2516
2017-02-23T14:03:10.001Z,2644
2017-02-23T14:04:19.630Z,3020
2017-02-23T14:05:29.060Z,2732
2017-02-23T14:06:39.195Z,3108
2017-02-23T14:07:49.664Z,2408
2017-02-23T14:09:00.151Z,1652
2017-02-23T14:10:10.787Z,1608
2017-02-23T14:11:21.827Z,1284
2017-02-23T14:12:33.285Z,2084
2017-02-23T14:13:44.298Z,2168
2017-02-23T14:14:55.728Z,2516
2017-02-23T14:16:07.161Z,2412
2017-02-23T14:17:18.694Z,2208
2017-02-23T14:18:29.711Z,1988
2017-02-23T14:19:40.726Z,1828
2017-02-23T14:20:52.162Z,2464
2017-02-23T14:22:03.607Z,3524
2017-02-23T14:23:15.088Z,2876
2017-02-23T14:24:26.521Z,1652
2017-02-23T14:25:37.955Z,2184
2017-02-23T14:26:49.379Z,2488
2017-02-23T14:28:00.797Z,2600
2017-02-23T14:29:12.282Z,1636
2017-02-23T14:30:23.267Z,1776
2017-02-23T14:31:34.708Z,1280
2017-02-23T14:32:46.145Z,1224
2017-02-23T14:33:57.582Z,1312
2017-02-23T14:35:09.051Z,1512
2017-02-23T14:36:20.477Z,1776
2017-02-23T14:37:31.930Z,1016
2017-02-23T14:38:43.351Z,480
2017-02-23T14:39:54.356Z,564
2017-02-23T14:41:05.814Z,560
2017-02-23T14:42:17.235Z,736
2017-02-23T14:43:28.668Z,848
2017-02-23T14:44:40.112Z,816
2017-02-23T14:45:51.538Z,1144
2017-02-23T14:47:03.020Z,820
2017-02-23T14:48:14.461Z,1076
2017-02-23T14:49:25.882Z,816
2017-02-23T14:50:38.293Z,832
2017-02-23T14:51:49.944Z,680
2017-02-23T14:53:01.581Z,1236
2017-02-23T14:54:12.807Z,1008
2017-02-23T14:55:24.092Z,816
2017-02-23T14:56:34.529Z,980
2017-02-23T14:57:46.278Z,1376
2017-02-23T14:58:57.103Z,1272
2017-02-23T15:00:08.117Z,1120
2017-02-23T15:01:19.114Z,1628
2017-02-23T15:02:30.547Z,1504
2017-02-23T15:03:41.732Z,2344
2017-02-23T15:04:53.258Z,2184
2017-02-23T15:06:04.827Z,2576
2017-02-23T15:07:15.492Z,2352
2017-02-23T15:08:26.485Z,2188
2017-02-23T15:09:37.174Z,2204
2017-02-23T15:10:47.800Z,2256
2017-02-23T15:11:59.221Z,1616
2017-02-23T15:13:10.650Z,1760
2017-02-23T15:14:22.275Z,1656
2017-02-23T15:15:33.348Z,1508
2017-02-23T15:16:44.985Z,1572
2017-02-23T15:17:56.195Z,1724
2017-02-23T15:19:08.332Z,1652
2017-02-23T15:20:19.325Z,1804
2017-02-23T15:21:30.630Z,1540
2017-02-23T15:22:42.253Z,956
2017-02-23T15:23:52.916Z,1052
2017-02-23T15:25:04.369Z,1096
2017-02-23T15:26:15.798Z,680
2017-02-23T15:27:27.347Z,828
2017-02-23T15:28:38.393Z,596
2017-02-23T15:29:49.826Z,480
2017-02-23T15:31:01.007Z,436
2017-02-23T15:32:12.040Z,536
2017-02-23T15:33:23.465Z,680
2017-02-23T15:34:34.067Z,848
2017-02-23T15:35:45.487Z,572
2017-02-23T15:36:56.773Z,600
2017-02-23T15:38:07.766Z,504
2017-02-23T15:39:19.187Z,540
2017-02-23T15:40:30.656Z,628
2017-02-23T15:41:41.657Z,772
2017-02-23T15:42:53.127Z,880
2017-02-23T15:44:04.112Z,1600
2017-02-23T15:45:15.413Z,860
2017-02-23T15:46:26.882Z,1100
2017-02-23T15:47:37.815Z,852
2017-02-23T15:48:49.237Z,492
2017-02-23T15:50:00.650Z,448
2017-02-23T15:51:12.087Z,476
2017-02-23T15:52:21.885Z,808
2017-02-23T15:53:31.303Z,988
2017-02-23T15:54:41.144Z,1100
2017-02-23T15:55:50.901Z,1084
2017-02-23T15:57:00.226Z,1776
2017-02-23T15:58:10.035Z,968
2017-02-23T15:59:19.368Z,672
2017-02-23T16:00:28.724Z,640
2017-02-23T16:01:38.931Z,508
2017-02-23T16:02:49.602Z,516
2017-02-23T16:03:59.873Z,468
2017-02-23T16:05:10.130Z,468
2017-02-23T16:06:19.903Z,504
2017-02-23T16:07:29.656Z,460
2017-02-23T16:08:39.205Z,428
2017-02-23T16:09:49.666Z,432
2017-02-23T16:10:59.866Z,388
2017-02-23T16:12:10.297Z,436
2017-02-23T16:13:20.070Z,368